Cape Lisburne Lrrs Airport
PALU : now visible

Airfield :











YOU CAN JOIN US ON...

 
LOGIN :

Register | Disclaimer

   EN    FR    IT 

 









Legend :    VFR   Marginal VFR   IFR   Intensive IFR   Very Intensive IFR
Visi :
Ceiling :
>= 8 km
>= 3000ft
5 to 8 km
1000 to 3000 ft
1500m to 5 km
500 to 1000 ft
800 to 1500m
200 to 500 ft
< 800m
< 200 ft
Symbols :   Thunderstorms  Fog  Heavy snow  Heavy precipitations  Wind > 20 kt






- Airport Elevation : 16 ft
- IATA code : LUR


PALU - Cape Lisburne Lrrs

CURRENT METAR :
  • 210855Z AUTO 17017G24KT 120V220 10SM -DZ OVC008 05/04 A3038 RMK AO2 RAB0655E0852DZB0852 SLP287 P0002 60011 T00480039 400480008 52007

EXPIRED METARs :
  • 210755Z AUTO 18018G23KT 090V230 6SM RA OVC008 04/04 A3037 RMK AO2 PK WND 19032/0715 SHRAB0655E0655 SLP285 P0006 T00410035
  • 210749Z AUTO 17017KT 100V210 6SM RA OVC008 04/03 A3038 RMK AO2 PK WND 19032/0715 SLP286
  • 210729Z AUTO 16022G30KT 090V270 3SM RA BR BKN006 OVC019 04/03 A3037 RMK AO2 PK WND 19032/0715 SLP283
  • 210655Z AUTO 17018G33KT 080V200 6SM -SHRA OVC005 04/03 A3037 RMK AO2 SHRAB0517 SLP283 P0003 T00390033

Expired Forecast.
PAZA FIR / North America



MET'MAP, your aeronautical weather chart ! - Copyright ORBIFLY December 2007 - Disclaimer

ORBIFLY MET'MAP TEAM :

Programming & Development : Alexandra Zaïnal
Concept & original design : Baudouin d'Aumeries
Assistance for programming : Marc-Olivier Méhu
Technical & hardware support : Manuel Goepfert

Contact : metmap@orbifly.com




SOURCES & CREDITS :

   NOAA       Earth
Advisory